Main page
METAR-TAF:

METAR-TAF

Airports :

Plzeň, Czech Republic

latitude: 49-40-31N, longitude: 13-16-29E, elevation: 362 m

Current weather observation

The report was made 20 minutes ago, at 07:00 UTC
Wind 8 kt from the Southwest
Temperature 16°C
Humidity 82%
Pressure 1015 hPa
Visibility 10 km or more
Broken clouds at a height of 1900 ft
Overcast at a height of 4600 ft

METAR: LKLN 220700Z AUTO 23008KT 9999 BKN019 OVC046 16/13 Q1015

Time: 09:20 (07:20 UTC)


TAF: missing

Weather observations and forecasts of more than 4000 airports (METAR and TAF reports).

The available stations are represented by yellow and red dots on the map.

Hover mouse over dot to see the name of the station.

Then click to see weather observations and forecasts.

To change the map : click on the green buttons with a black cross to zoom in, on the green button with a dash to zoom out, or on the green arrows for adjacent maps.


METAR-TAF: